Time;durP1;ratioP1;P1;durP2;ratioP2;P2;SDS_P1;SDS_P2;PMS_P1;PMS_P2;Temp;Humidity;BMP_temperature;BMP_pressure;BME280_temperature;BME280_humidity;BME280_pressure;Samples;Min_cycle;Max_cycle;Signal;HPM_P1;HPM_P2
2022/11/28 00:01:08;;;;;;;51.78;26.10;;;;;;;2.48;76.33;99281.84;5051272;28;20478;-72
2022/11/28 00:03:33;;;;;;;46.03;25.13;;;;;;;2.50;75.70;99271.63;5051706;28;20064;-71
2022/11/28 00:06:03;;;;;;;46.15;24.63;;;;;;;2.51;76.35;99261.63;5050958;28;20116;-71
2022/11/28 00:08:29;;;;;;;52.75;27.17;;;;;;;2.52;75.96;99266.81;5052882;28;20503;-72
2022/11/28 00:10:55;;;;;;;50.88;26.15;;;;;;;2.55;75.67;99267.41;5052549;28;20025;-72
2022/11/28 00:13:20;;;;;;;52.47;27.05;;;;;;;2.56;76.52;99266.38;5052666;28;20025;-72
2022/11/28 00:16:00;;;;;;;49.70;26.98;;;;;;;2.56;76.61;99264.50;5052875;28;20022;-71
2022/11/28 00:18:26;;;;;;;51.03;26.17;;;;;;;2.59;76.61;99249.69;5051465;28;20519;-71
2022/11/28 00:20:57;;;;;;;50.03;27.05;;;;;;;2.60;75.59;99252.19;5051035;28;20065;-71
2022/11/28 00:23:22;;;;;;;52.22;27.55;;;;;;;2.62;75.44;99249.22;5052041;28;20041;-72
2022/11/28 00:25:57;;;;;;;54.25;28.25;;;;;;;2.61;76.46;99242.16;5051374;28;20021;-72
2022/11/28 00:28:23;;;;;;;50.22;27.98;;;;;;;2.60;75.60;99246.75;5052162;28;20469;-72
2022/11/28 00:30:48;;;;;;;55.40;28.73;;;;;;;2.60;76.30;99235.09;5051812;28;20021;-73
2022/11/28 00:33:14;;;;;;;50.95;27.08;;;;;;;2.61;76.00;99242.16;5052159;28;20465;-72
2022/11/28 00:35:39;;;;;;;50.28;26.15;;;;;;;2.60;76.16;99237.78;5052489;28;20094;-71
2022/11/28 00:38:04;;;;;;;51.90;26.60;;;;;;;2.60;75.99;99230.50;5052397;28;20175;-71
2022/11/28 00:40:31;;;;;;;48.45;26.33;;;;;;;2.59;76.58;99234.28;5050361;28;20041;-71
2022/11/28 00:42:56;;;;;;;51.85;26.98;;;;;;;2.57;75.84;99236.38;5050766;28;20055;-71
2022/11/28 00:45:22;;;;;;;52.35;28.48;;;;;;;2.59;76.60;99231.56;5052085;28;20021;-72
2022/11/28 00:47:48;;;;;;;49.70;26.17;;;;;;;2.59;75.87;99228.84;5052000;28;20021;-71
2022/11/28 00:50:13;;;;;;;50.13;27.77;;;;;;;2.61;76.02;99234.88;5051037;28;20156;-71
2022/11/28 00:52:39;;;;;;;47.13;26.23;;;;;;;2.63;76.01;99230.06;5051563;28;20180;-72
2022/11/28 00:55:05;;;;;;;49.30;25.80;;;;;;;2.63;76.29;99224.66;5050256;28;20044;-72
2022/11/28 00:57:30;;;;;;;49.70;26.55;;;;;;;2.67;76.18;99230.44;5051745;28;20479;-71
2022/11/28 00:59:56;;;;;;;49.53;25.55;;;;;;;2.68;76.49;99230.19;5050358;28;20064;-72
2022/11/28 01:02:21;;;;;;;50.97;26.73;;;;;;;2.73;76.33;99245.78;5051644;28;20374;-71
2022/11/28 01:04:46;;;;;;;48.63;26.15;;;;;;;2.75;76.65;99242.84;5049691;28;20274;-71
2022/11/28 01:07:12;;;;;;;55.20;28.08;;;;;;;2.76;76.81;99248.03;5051421;28;20405;-71
2022/11/28 01:09:37;;;;;;;49.92;26.58;;;;;;;2.77;76.74;99246.16;5050888;28;20056;-71
2022/11/28 01:12:03;;;;;;;50.70;27.42;;;;;;;2.79;76.70;99238.63;5050676;28;20424;-72
2022/11/28 01:14:29;;;;;;;54.38;28.08;;;;;;;2.78;76.05;99235.09;5051228;28;20100;-72
2022/11/28 01:16:55;;;;;;;49.83;27.23;;;;;;;2.80;76.23;99240.28;5051137;28;20032;-75
2022/11/28 01:19:20;;;;;;;50.08;27.17;;;;;;;2.81;75.92;99225.69;5051097;28;20377;-74
2022/11/28 01:21:46;;;;;;;48.83;26.23;;;;;;;2.83;76.26;99220.88;5050138;28;20112;-74
2022/11/28 01:24:13;;;;;;;53.05;28.77;;;;;;;2.82;76.42;99220.06;5050688;28;20029;-74
2022/11/28 01:26:39;;;;;;;48.72;24.40;;;;;;;2.84;76.60;99225.22;5051259;28;20033;-73
2022/11/28 01:29:05;;;;;;;49.47;26.27;;;;;;;2.89;75.72;99216.41;5051421;28;20029;-74
2022/11/28 01:31:31;;;;;;;49.03;25.65;;;;;;;2.91;76.72;99211.59;5050738;28;20231;-74
2022/11/28 01:33:57;;;;;;;49.45;27.80;;;;;;;2.90;76.40;99215.34;5051532;28;20497;-74
2022/11/28 01:36:22;;;;;;;49.70;25.40;;;;;;;2.92;76.17;99200.53;5050798;28;20078;-74
2022/11/28 01:38:48;;;;;;;52.85;27.40;;;;;;;2.94;76.10;99194.88;5050769;28;20534;-74
2022/11/28 01:41:16;;;;;;;51.70;27.95;;;;;;;2.97;76.60;99192.56;5050882;28;20108;-74
2022/11/28 01:43:58;;;;;;;49.97;27.27;;;;;;;2.98;75.81;99194.22;5048931;28;20056;-74
2022/11/28 01:46:23;;;;;;;48.08;27.55;;;;;;;2.99;76.03;99189.59;5050212;28;20102;-74
2022/11/28 01:48:50;;;;;;;45.42;25.35;;;;;;;3.01;76.04;99192.09;5050255;28;20432;-74
2022/11/28 01:51:16;;;;;;;43.15;25.40;;;;;;;3.04;76.16;99189.75;5050056;28;20123;-74
2022/11/28 01:53:45;;;;;;;47.95;25.38;;;;;;;3.05;76.20;99177.06;5049971;28;20108;-74
2022/11/28 01:56:19;;;;;;;50.08;27.15;;;;;;;3.05;76.34;99174.34;5050685;28;20029;-74
2022/11/28 01:58:47;;;;;;;51.15;27.35;;;;;;;3.05;76.02;99167.03;5049316;28;20560;-75
2022/11/28 02:01:14;;;;;;;51.50;26.60;;;;;;;3.04;76.39;99165.38;5050472;28;20402;-74
2022/11/28 02:03:44;;;;;;;50.67;27.10;;;;;;;3.03;75.60;99162.91;5049181;28;20021;-75
2022/11/28 02:06:13;;;;;;;50.78;27.40;;;;;;;3.05;76.33;99156.19;5049345;28;20481;-74
2022/11/28 02:08:39;;;;;;;49.08;26.27;;;;;;;3.08;76.06;99149.47;5049099;28;20029;-74
2022/11/28 02:11:16;;;;;;;53.03;29.02;;;;;;;3.11;76.25;99162.56;5050064;28;20035;-74
2022/11/28 02:14:15;;;;;;;49.63;26.90;;;;;;;3.11;75.77;99162.56;5046981;28;20435;-74
2022/11/28 02:16:43;;;;;;;47.45;28.02;;;;;;;3.15;75.76;99154.81;5047021;28;20029;-74
2022/11/28 02:19:21;;;;;;;52.25;28.27;;;;;;;3.12;76.42;99148.78;5050237;28;20029;-75
2022/11/28 02:22:04;;;;;;;47.45;27.13;;;;;;;3.15;76.01;99150.19;5050046;28;20104;-75
2022/11/28 02:24:51;;;;;;;53.75;29.35;;;;;;;3.16;75.75;99137.50;5048743;28;20029;-74
2022/11/28 02:27:43;;;;;;;53.60;29.95;;;;;;;3.17;75.94;99139.94;5049827;28;20028;-74
2022/11/28 02:30:14;;;;;;;57.90;30.75;;;;;;;3.20;76.15;99136.78;5050160;28;20443;-74
2022/11/28 02:32:40;;;;;;;52.10;29.50;;;;;;;3.21;76.13;99132.19;5050361;28;20236;-75
2022/11/28 02:35:11;;;;;;;48.75;27.88;;;;;;;3.19;75.96;99135.13;5050021;28;20032;-75
2022/11/28 02:38:11;;;;;;;52.00;27.38;;;;;;;3.20;75.96;99139.50;5050160;28;20170;-74
2022/11/28 02:41:11;;;;;;;49.40;27.38;;;;;;;3.21;76.05;99127.59;5048700;28;20066;-75
2022/11/28 02:44:00;;;;;;;47.10;25.90;;;;;;;3.22;76.30;99129.25;5035838;28;20045;-74
2022/11/28 02:46:36;;;;;;;47.92;26.08;;;;;;;3.24;76.42;99129.03;5049928;28;20477;-75
2022/11/28 02:49:05;;;;;;;50.58;27.75;;;;;;;3.25;76.30;99128.78;5049067;28;20483;-75
2022/11/28 02:51:42;;;;;;;46.88;26.70;;;;;;;3.25;75.66;99136.09;5048946;28;20037;-75
2022/11/28 02:54:12;;;;;;;45.53;25.88;;;;;;;3.25;76.24;99128.78;5049189;28;20397;-74
2022/11/28 02:56:37;;;;;;;49.53;25.80;;;;;;;3.24;75.81;99127.13;5048226;28;20037;-75
2022/11/28 02:59:03;;;;;;;51.30;26.33;;;;;;;3.25;75.82;99123.38;5049213;28;20044;-75
2022/11/28 03:01:33;;;;;;;49.58;26.48;;;;;;;3.25;75.81;99119.84;5049234;28;20029;-74
2022/11/28 03:04:06;;;;;;;;;;;;;;;3.28;75.59;99124.78;5047507;28;20028;-74
2022/11/28 03:07:09;;;;;;;45.80;24.95;;;;;;;3.26;75.54;99110.66;5048730;28;19909;-75
2022/11/28 03:09:52;;;;;;;54.58;29.77;;;;;;;3.27;75.98;99118.53;5047892;28;20025;-74
2022/11/28 03:12:44;;;;;;;50.80;27.75;;;;;;;3.24;75.40;99108.16;5046720;28;20098;-74
2022/11/28 03:15:13;;;;;;;46.80;25.50;;;;;;;3.25;76.01;99111.72;5049033;28;20037;-74
2022/11/28 03:17:59;;;;;;;49.45;26.60;;;;;;;3.20;76.08;99100.72;5049139;28;20028;-75
2022/11/28 03:20:53;;;;;;;53.75;27.10;;;;;;;3.20;75.38;99093.41;5046135;28;20132;-75
2022/11/28 03:23:26;;;;;;;46.47;25.30;;;;;;;3.19;75.36;99091.75;5048103;28;20027;-74
2022/11/28 03:26:00;;;;;;;50.92;26.80;;;;;;;3.16;75.84;99080.56;5049149;28;20428;-74
2022/11/28 03:28:58;;;;;;;48.90;26.80;;;;;;;3.15;75.48;99078.91;5047862;28;20025;-75
2022/11/28 03:31:32;;;;;;;48.15;26.42;;;;;;;3.14;75.53;99080.78;5025246;28;20036;-75
2022/11/28 03:33:59;;;;;;;49.13;26.15;;;;;;;3.13;76.08;99081.84;5049221;28;20021;-74
2022/11/28 03:36:31;;;;;;;47.80;26.77;;;;;;;3.09;75.67;99086.91;5048885;28;20021;-74
2022/11/28 03:39:03;;;;;;;47.15;26.40;;;;;;;3.09;75.32;99080.66;5049081;28;20021;-75
2022/11/28 03:41:47;;;;;;;48.75;26.80;;;;;;;3.08;75.28;99081.72;5049369;28;20025;-75
2022/11/28 03:44:26;;;;;;;46.17;25.30;;;;;;;3.07;75.33;99085.47;5047482;28;20025;-74
2022/11/28 03:46:55;;;;;;;44.10;24.98;;;;;;;3.03;75.81;99074.28;5048891;28;20037;-75
2022/11/28 03:49:28;;;;;;;49.08;25.73;;;;;;;2.99;75.54;99075.81;5048845;28;20492;-75
2022/11/28 03:51:59;;;;;;;49.72;26.50;;;;;;;2.95;75.33;99075.44;5049219;28;20072;-74
2022/11/28 03:54:33;;;;;;;47.33;25.35;;;;;;;2.94;75.85;99072.94;5049312;28;20033;-74
2022/11/28 03:57:09;;;;;;;45.05;26.02;;;;;;;2.94;75.83;99073.78;5048903;28;20388;-75
2022/11/28 03:59:44;;;;;;;45.50;25.75;;;;;;;2.93;75.58;99069.44;5049196;28;20036;-74
2022/11/28 04:02:14;;;;;;;44.45;24.95;;;;;;;2.92;75.65;99075.06;5050988;28;20033;-74
2022/11/28 04:04:58;;;;;;;45.50;25.13;;;;;;;2.92;75.74;99072.34;5053622;28;20021;-75
2022/11/28 04:07:40;;;;;;;45.05;25.60;;;;;;;2.93;75.92;99074.84;5053262;28;20078;-74
2022/11/28 04:10:20;;;;;;;46.83;26.02;;;;;;;2.93;75.38;99076.72;5051539;28;20029;-75
2022/11/28 04:13:00;;;;;;;48.53;26.83;;;;;;;2.89;75.52;99072.81;5053282;28;20052;-74
2022/11/28 04:15:43;;;;;;;48.15;25.65;;;;;;;2.87;75.81;99078.47;5053190;28;20037;-75
2022/11/28 04:18:24;;;;;;;43.88;24.13;;;;;;;2.86;75.93;99082.25;5052675;28;20029;-75
2022/11/28 04:21:06;;;;;;;47.47;24.77;;;;;;;2.90;75.47;99083.44;5052833;28;20116;-75
2022/11/28 04:23:34;;;;;;;46.15;25.30;;;;;;;2.96;76.23;99081.69;5052778;28;20733;-75
2022/11/28 04:26:09;;;;;;;43.58;24.98;;;;;;;2.97;76.06;99086.88;5053033;28;20458;-75
2022/11/28 04:28:36;;;;;;;46.15;25.77;;;;;;;3.00;76.09;99082.88;5052989;28;20040;-75
2022/11/28 04:31:04;;;;;;;48.08;26.42;;;;;;;3.02;75.84;99086.19;5052915;28;20805;-75
2022/11/28 04:33:34;;;;;;;45.70;25.73;;;;;;;3.04;75.82;99080.53;5052282;28;20029;-75
2022/11/28 04:36:02;;;;;;;51.90;27.02;;;;;;;3.04;75.47;99083.25;5052147;28;20108;-75
2022/11/28 04:38:30;;;;;;;48.05;27.00;;;;;;;3.05;75.58;99079.50;5051662;28;20420;-75
2022/11/28 04:41:04;;;;;;;53.03;29.58;;;;;;;3.04;75.90;99080.53;5050509;28;20492;-75
2022/11/28 04:43:36;;;;;;;47.08;25.73;;;;;;;3.04;75.73;99083.25;5052645;28;20025;-74
2022/11/28 04:46:11;;;;;;;47.40;27.08;;;;;;;3.03;75.15;99073.47;5052590;28;20086;-75
2022/11/28 04:48:37;;;;;;;49.75;25.55;;;;;;;3.02;75.30;99080.75;5052189;28;20493;-75
2022/11/28 04:51:19;;;;;;;44.38;25.95;;;;;;;2.98;76.16;99084.97;5051828;28;20060;-75
2022/11/28 04:54:06;;;;;;;46.60;26.20;;;;;;;2.94;75.57;99076.50;5052753;28;20040;-75
2022/11/28 04:57:07;;;;;;;51.75;27.00;;;;;;;2.93;75.66;99080.28;5052461;28;20036;-75
2022/11/28 04:59:33;;;;;;;46.33;25.83;;;;;;;2.93;76.08;99080.28;5043236;28;20037;-75
2022/11/28 05:02:03;;;;;;;46.10;24.75;;;;;;;2.92;75.17;99083.19;5052259;28;20102;-75
2022/11/28 05:04:29;;;;;;;45.95;24.38;;;;;;;2.93;75.35;99084.84;5052411;28;20091;-75
2022/11/28 05:07:05;;;;;;;44.58;23.55;;;;;;;2.91;76.19;99076.13;5052376;28;20144;-75
2022/11/28 05:09:31;;;;;;;45.30;23.63;;;;;;;2.90;75.62;99080.72;5051640;28;20393;-75
2022/11/28 05:11:56;;;;;;;44.15;24.50;;;;;;;2.89;75.28;99087.19;5051210;28;20036;-74
2022/11/28 05:14:22;;;;;;;45.15;23.85;;;;;;;2.89;75.56;99078.22;5051095;28;20033;-75
2022/11/28 05:16:48;;;;;;;41.13;23.08;;;;;;;2.92;76.05;99078.63;5052035;28;20481;-75
2022/11/28 05:19:14;;;;;;;39.42;23.33;;;;;;;2.93;75.60;99074.84;5051379;28;20037;-74
2022/11/28 05:21:39;;;;;;;44.40;24.13;;;;;;;2.94;75.74;99073.78;5051701;28;20477;-75
2022/11/28 05:24:05;;;;;;;45.47;25.05;;;;;;;2.95;76.15;99080.03;5050597;28;20029;-75
2022/11/28 05:26:31;;;;;;;44.65;25.27;;;;;;;2.95;75.55;99077.31;5051883;28;20025;-75
2022/11/28 05:28:57;;;;;;;47.88;25.83;;;;;;;2.96;76.36;99079.81;5051365;28;20107;-75
2022/11/28 05:31:22;;;;;;;45.03;24.60;;;;;;;2.95;75.90;99080.88;5051540;28;20457;-75
2022/11/28 05:33:48;;;;;;;47.70;25.50;;;;;;;2.96;75.78;99081.69;5051511;28;20024;-76
2022/11/28 05:36:15;;;;;;;48.80;26.63;;;;;;;2.96;76.21;99079.81;5051587;28;20100;-75
2022/11/28 05:38:42;;;;;;;49.40;26.38;;;;;;;2.94;75.79;99079.22;5051023;28;20359;-75
2022/11/28 05:41:08;;;;;;;44.65;25.33;;;;;;;2.94;75.88;99084.63;5050875;28;20497;-75
2022/11/28 05:43:33;;;;;;;52.10;28.30;;;;;;;2.92;76.00;99078.63;5051595;28;20021;-75
2022/11/28 05:45:59;;;;;;;48.15;27.52;;;;;;;2.94;76.06;99076.50;5051450;28;20020;-74
2022/11/28 05:48:24;;;;;;;46.92;27.33;;;;;;;2.97;75.48;99070.63;5052740;28;20017;-74
2022/11/28 05:50:50;;;;;;;56.40;29.30;;;;;;;2.98;75.51;99077.69;5050927;28;20032;-75
2022/11/28 05:53:18;;;;;;;50.30;27.58;;;;;;;3.02;76.06;99085.38;5051205;28;20029;-75
2022/11/28 05:55:44;;;;;;;53.17;27.95;;;;;;;3.03;76.49;99077.00;5051337;28;20521;-75
2022/11/28 05:58:09;;;;;;;51.80;28.02;;;;;;;3.07;75.99;99071.91;5050950;28;20029;-75
2022/11/28 06:00:35;;;;;;;50.13;27.38;;;;;;;3.10;75.74;99074.16;5050724;28;20028;-75
2022/11/28 06:03:02;;;;;;;49.33;25.73;;;;;;;3.10;75.66;99071.47;5049747;28;20059;-74
2022/11/28 06:05:27;;;;;;;46.15;27.63;;;;;;;3.09;75.93;99072.50;5050895;28;20021;-75
2022/11/28 06:07:53;;;;;;;47.17;26.80;;;;;;;3.10;75.79;99076.88;5051076;28;20036;-75
2022/11/28 06:10:21;;;;;;;45.80;26.25;;;;;;;3.12;75.98;99077.47;5050043;28;20032;-75
2022/11/28 06:12:47;;;;;;;56.63;30.83;;;;;;;3.14;75.76;99080.78;5051145;28;20033;-75
2022/11/28 06:15:12;;;;;;;49.42;27.48;;;;;;;3.15;75.47;99081.63;5051116;28;20017;-75
2022/11/28 06:17:37;;;;;;;54.08;29.67;;;;;;;3.16;75.61;99075.16;5050842;28;20092;-75
2022/11/28 06:20:04;;;;;;;93.28;51.20;;;;;;;3.16;76.03;99077.84;5049163;28;20075;-75
2022/11/28 06:22:29;;;;;;;105.28;63.20;;;;;;;3.17;76.17;99076.78;5050611;28;20036;-75
2022/11/28 06:24:54;;;;;;;77.25;46.92;;;;;;;3.18;76.33;99071.13;5050031;28;20032;-75
2022/11/28 06:27:20;;;;;;;61.17;35.95;;;;;;;3.19;75.92;99070.06;5050951;28;20053;-75
2022/11/28 06:29:45;;;;;;;52.03;32.08;;;;;;;3.20;76.30;99074.44;5049455;28;20267;-75
2022/11/28 06:32:11;;;;;;;51.47;29.67;;;;;;;3.21;75.74;99069.84;5049940;28;20051;-75
2022/11/28 06:34:36;;;;;;;62.47;33.60;;;;;;;3.19;76.29;99075.50;5048488;28;20095;-75
2022/11/28 06:37:01;;;;;;;59.50;32.30;;;;;;;3.18;75.90;99071.13;5050591;28;20043;-75
2022/11/28 06:39:27;;;;;;;52.00;30.05;;;;;;;3.16;75.49;99070.53;5050484;28;20107;-74
2022/11/28 06:41:52;;;;;;;48.80;27.98;;;;;;;3.17;76.10;99074.09;5048892;28;20025;-75
2022/11/28 06:44:18;;;;;;;48.13;27.48;;;;;;;3.16;75.53;99070.53;5050818;28;20066;-74
2022/11/28 06:46:43;;;;;;;50.08;29.55;;;;;;;3.16;75.47;99070.53;5050838;28;20025;-73
2022/11/28 06:49:12;;;;;;;52.25;29.23;;;;;;;3.16;76.22;99069.72;5048465;28;20075;-73
2022/11/28 06:51:41;;;;;;;51.20;31.07;;;;;;;3.19;75.52;99070.06;5047510;28;20052;-73
2022/11/28 06:54:07;;;;;;;67.35;43.00;;;;;;;3.23;75.89;99062.31;5048066;28;20771;-73
2022/11/28 06:56:33;;;;;;;54.90;33.67;;;;;;;3.25;75.47;99068.34;5048675;28;20025;-73
2022/11/28 06:58:59;;;;;;;56.05;34.65;;;;;;;3.25;75.63;99069.16;5047463;28;20032;-73
2022/11/28 07:01:27;;;;;;;97.32;54.33;;;;;;;3.26;75.34;99059.94;5047822;28;20052;-73
2022/11/28 07:03:53;;;;;;;85.20;45.38;;;;;;;3.25;76.07;99066.44;5045404;28;20074;-73
2022/11/28 07:06:19;;;;;;;124.60;60.40;;;;;;;3.26;75.97;99064.56;5047397;28;20032;-73
2022/11/28 07:08:45;;;;;;;167.32;66.60;;;;;;;3.28;75.62;99067.84;5048577;28;20021;-73
2022/11/28 07:11:35;;;;;;;124.03;52.42;;;;;;;3.28;75.69;99068.69;5047549;28;20615;-73
2022/11/28 07:14:01;;;;;;;137.68;59.83;;;;;;;3.30;75.68;99062.19;5047258;28;20116;-73
2022/11/28 07:16:32;;;;;;;129.02;68.47;;;;;;;3.31;75.85;99055.72;5047828;28;20440;-74
2022/11/28 07:18:58;;;;;;;79.15;47.85;;;;;;;3.31;75.73;99050.31;5046402;28;20021;-75
2022/11/28 07:21:25;;;;;;;70.70;45.22;;;;;;;3.32;75.60;99057.38;5048361;28;20020;-76
2022/11/28 07:23:50;;;;;;;61.35;40.78;;;;;;;3.34;76.08;99060.69;5046848;28;20741;-74
2022/11/28 07:26:18;;;;;;;55.35;35.60;;;;;;;3.32;75.26;99050.06;5048641;28;20025;-73
2022/11/28 07:28:45;;;;;;;57.33;37.47;;;;;;;3.33;75.43;99054.41;5049084;28;20075;-74
2022/11/28 07:31:16;;;;;;;56.88;37.88;;;;;;;3.35;75.90;99055.00;5048638;28;20040;-74
2022/11/28 07:33:43;;;;;;;54.53;33.97;;;;;;;3.38;75.77;99053.72;5048401;28;20060;-74
2022/11/28 07:36:12;;;;;;;51.10;31.05;;;;;;;3.38;76.17;99051.03;5051189;28;20029;-74
2022/11/28 07:38:38;;;;;;;51.17;30.30;;;;;;;3.40;75.80;99046.19;5052697;28;20032;-74
2022/11/28 07:41:07;;;;;;;50.42;29.33;;;;;;;3.39;75.30;99045.34;5052363;28;20021;-73
2022/11/28 07:43:33;;;;;;;49.35;28.83;;;;;;;3.38;76.25;99037.47;5052318;28;20028;-72
2022/11/28 07:46:01;;;;;;;51.33;29.92;;;;;;;3.38;75.86;99038.28;5051509;28;20116;-72
2022/11/28 07:48:27;;;;;;;47.45;27.92;;;;;;;3.41;75.78;99039.69;5053163;28;20037;-72
2022/11/28 07:50:52;;;;;;;48.10;27.45;;;;;;;3.43;75.47;99035.69;5052559;28;20025;-71
2022/11/28 07:53:17;;;;;;;48.55;28.55;;;;;;;3.46;76.07;99028.97;5052750;28;20517;-72
2022/11/28 07:55:43;;;;;;;52.95;33.15;;;;;;;3.50;75.99;99040.16;5052409;28;20109;-72
2022/11/28 07:58:08;;;;;;;54.47;33.50;;;;;;;3.52;75.46;99028.00;5050782;28;20036;-74
2022/11/28 08:00:33;;;;;;;55.95;32.60;;;;;;;3.55;76.12;99024.84;5051010;28;20032;-72
2022/11/28 08:02:59;;;;;;;56.70;33.47;;;;;;;3.58;76.13;99023.56;5052311;28;20483;-71
2022/11/28 08:05:24;;;;;;;55.25;33.00;;;;;;;3.62;75.40;99023.88;5050671;28;20029;-72
2022/11/28 08:07:50;;;;;;;56.42;30.95;;;;;;;3.64;75.52;99028.03;5051984;28;20025;-71
2022/11/28 08:10:16;;;;;;;55.08;31.23;;;;;;;3.67;76.09;99029.44;5048334;28;20084;-71
2022/11/28 08:12:41;;;;;;;60.90;36.60;;;;;;;3.68;75.90;99022.94;5043770;28;20100;-76
2022/11/28 08:15:07;;;;;;;63.53;36.40;;;;;;;3.68;75.48;99025.66;5042374;28;20031;-75
2022/11/28 08:17:33;;;;;;;60.05;33.80;;;;;;;3.68;75.48;99017.53;5051369;28;20420;-74
2022/11/28 08:19:59;;;;;;;56.58;32.45;;;;;;;3.69;76.00;99016.47;5051074;28;20059;-74
2022/11/28 08:22:24;;;;;;;63.47;36.00;;;;;;;3.70;75.50;99021.63;5051913;28;20503;-77
2022/11/28 08:24:49;;;;;;;67.18;37.72;;;;;;;3.72;75.97;99019.50;5051178;28;20481;-76
2022/11/28 08:27:15;;;;;;;66.93;38.95;;;;;;;3.75;75.61;99020.09;5051483;28;20021;-76
2022/11/28 08:29:40;;;;;;;81.82;43.33;;;;;;;3.78;75.50;99014.19;5051652;28;20052;-74
2022/11/28 08:32:06;;;;;;;75.28;40.28;;;;;;;3.82;75.85;99020.81;5048964;28;20575;-76
2022/11/28 08:34:31;;;;;;;77.20;40.95;;;;;;;3.85;75.64;99015.75;5049942;28;20513;-76
2022/11/28 08:36:56;;;;;;;71.68;36.10;;;;;;;3.89;75.38;99026.94;5050917;28;20033;-76
2022/11/28 08:39:22;;;;;;;149.10;66.07;;;;;;;3.92;75.88;99021.03;5050476;28;20370;-77
2022/11/28 08:41:48;;;;;;;126.63;57.05;;;;;;;3.95;75.84;99023.28;5051401;28;20033;-76
2022/11/28 08:44:14;;;;;;;91.70;48.72;;;;;;;3.98;75.34;99025.50;5050553;28;20470;-75
2022/11/28 08:46:39;;;;;;;66.97;37.50;;;;;;;4.00;75.93;99025.25;5049226;28;20041;-75
2022/11/28 08:49:06;;;;;;;55.30;34.38;;;;;;;4.03;75.76;99024.78;5048946;28;20029;-75
2022/11/28 08:51:32;;;;;;;55.47;32.05;;;;;;;4.06;75.70;99018.88;5051897;28;20547;-76
2022/11/28 08:53:57;;;;;;;52.92;30.88;;;;;;;4.08;75.79;99021.34;5049707;28;20029;-74
2022/11/28 08:56:23;;;;;;;53.30;31.02;;;;;;;4.09;75.88;99015.69;5050079;28;20044;-75
2022/11/28 08:58:48;;;;;;;59.65;33.35;;;;;;;4.11;75.46;99020.88;5049204;28;20032;-77
2022/11/28 09:01:22;;;;;;;60.22;35.67;;;;;;;4.13;75.37;99018.72;5050783;28;20025;-78
2022/11/28 09:03:48;;;;;;;59.90;36.85;;;;;;;4.20;75.64;99018.63;5052107;28;20040;-78
2022/11/28 09:06:15;;;;;;;58.63;34.92;;;;;;;4.24;75.45;99017.88;5050813;28;20029;-76
2022/11/28 09:08:41;;;;;;;56.97;31.98;;;;;;;4.26;75.78;99018.47;5049547;28;20028;-77
2022/11/28 09:11:13;;;;;;;51.53;29.38;;;;;;;4.29;75.91;99003.56;5051530;28;20056;-77
2022/11/28 09:13:38;;;;;;;50.85;29.05;;;;;;;4.34;75.58;99011.81;5052989;28;20025;-75
2022/11/28 09:16:04;;;;;;;51.55;29.95;;;;;;;4.38;75.54;99012.19;5048949;28;20035;-76
2022/11/28 09:18:30;;;;;;;48.60;28.15;;;;;;;4.40;75.94;99007.34;5049280;28;20033;-75
2022/11/28 09:21:00;;;;;;;51.17;28.48;;;;;;;4.47;75.49;98999.88;5050342;28;20033;-75
2022/11/28 09:23:25;;;;;;;50.60;27.55;;;;;;;4.54;75.39;98997.00;5048444;28;20570;-74
2022/11/28 09:25:51;;;;;;;47.97;28.20;;;;;;;4.60;75.48;98990.59;5051574;28;20059;-75
2022/11/28 09:28:16;;;;;;;49.90;29.15;;;;;;;4.67;75.64;98995.88;5048418;28;20068;-77
2022/11/28 09:30:41;;;;;;;51.05;29.73;;;;;;;4.74;75.85;98993.81;5050217;28;20029;-77
2022/11/28 09:33:07;;;;;;;56.28;31.23;;;;;;;4.79;75.37;98993.94;5048674;28;20056;-75
2022/11/28 09:35:32;;;;;;;51.55;32.20;;;;;;;4.83;75.87;98986.09;5051554;28;20025;-74
2022/11/28 09:37:58;;;;;;;59.22;32.10;;;;;;;4.85;75.10;98990.22;5050147;28;20043;-74
2022/11/28 09:40:33;;;;;;;55.25;30.90;;;;;;;4.83;75.04;98984.22;5049677;28;20385;-75
2022/11/28 09:43:00;;;;;;;56.03;29.92;;;;;;;4.88;75.17;98981.59;5048304;28;20112;-76
2022/11/28 09:45:26;;;;;;;50.00;27.10;;;;;;;4.95;75.45;98983.28;5048187;28;20021;-75
2022/11/28 09:47:56;;;;;;;47.83;27.45;;;;;;;4.96;75.22;98985.78;5046642;28;20013;-75
2022/11/28 09:50:33;;;;;;;47.65;27.55;;;;;;;5.00;75.35;98977.94;5049122;28;20041;-76
2022/11/28 09:53:19;;;;;;;45.65;26.45;;;;;;;5.01;75.13;98977.72;5049113;28;20053;-75
2022/11/28 09:55:57;;;;;;;44.00;24.90;;;;;;;5.01;74.96;98974.16;5049374;28;20083;-75
2022/11/28 09:58:34;;;;;;;48.95;28.13;;;;;;;5.04;75.07;98974.50;5048906;28;20063;-76
2022/11/28 10:01:31;;;;;;;48.35;26.35;;;;;;;5.07;75.40;98959.59;5050581;28;20381;-75
2022/11/28 10:04:14;;;;;;;45.60;24.33;;;;;;;5.11;75.25;98958.00;5049192;28;20478;-74
2022/11/28 10:07:04;;;;;;;46.88;26.98;;;;;;;5.13;75.07;98955.88;5046179;28;20025;-73
2022/11/28 10:09:50;;;;;;;43.92;24.08;;;;;;;5.12;74.73;98954.22;5045731;28;20021;-74
2022/11/28 10:12:53;;;;;;;42.85;24.25;;;;;;;5.15;74.86;98942.03;5051812;28;20432;-72
2022/11/28 10:15:46;;;;;;;45.97;25.92;;;;;;;5.20;75.22;98944.81;5048331;28;20037;-74
2022/11/28 10:18:27;;;;;;;47.67;27.73;;;;;;;5.22;75.20;98942.69;5048943;28;20199;-73
2022/11/28 10:21:00;;;;;;;46.55;27.33;;;;;;;5.27;74.72;98942.75;5049463;28;20033;-74
2022/11/28 10:23:34;;;;;;;47.60;28.02;;;;;;;5.30;75.25;98936.81;5048984;28;20029;-74
2022/11/28 10:26:04;;;;;;;49.42;28.75;;;;;;;5.32;74.87;98940.13;5046152;28;20036;-76
2022/11/28 10:28:42;;;;;;;53.05;29.70;;;;;;;5.34;74.92;98929.81;5048403;28;20033;-75
2022/11/28 10:31:35;;;;;;;50.00;27.10;;;;;;;5.38;75.00;98934.75;5046142;28;20028;-75
2022/11/28 10:34:03;;;;;;;55.10;29.92;;;;;;;5.40;74.74;98935.31;5046200;28;20069;-75
2022/11/28 10:37:12;;;;;;;48.17;26.98;;;;;;;5.42;74.42;98925.03;5049185;28;20829;-75
2022/11/28 10:39:42;;;;;;;42.17;25.63;;;;;;;5.46;74.44;98924.25;5006027;28;20033;-74
2022/11/28 10:42:11;;;;;;;49.85;27.35;;;;;;;5.49;74.85;98923.75;5040551;28;20045;-77
2022/11/28 10:45:11;;;;;;;51.75;28.10;;;;;;;5.53;74.71;98923.25;5048100;28;20021;-74
2022/11/28 10:47:57;;;;;;;47.05;26.25;;;;;;;5.59;74.67;98912.19;5047715;28;20077;-75
2022/11/28 10:50:55;;;;;;;51.80;29.10;;;;;;;5.56;74.74;98915.41;5049118;28;20872;-74
2022/11/28 10:53:23;;;;;;;51.30;28.63;;;;;;;5.58;74.75;98909.72;5038557;28;20508;-75
2022/11/28 10:56:13;;;;;;;52.72;28.98;;;;;;;5.55;74.93;98900.16;5048809;28;20168;-75
2022/11/28 10:58:54;;;;;;;49.47;28.27;;;;;;;5.58;74.24;98901.56;5048859;28;20033;-73
2022/11/28 11:01:19;;;;;;;54.97;29.13;;;;;;;5.61;74.65;98901.06;5049576;28;20029;-75
2022/11/28 11:03:45;;;;;;;52.58;28.92;;;;;;;5.63;74.67;98902.44;5049127;28;20307;-74
2022/11/28 11:06:11;;;;;;;53.65;28.85;;;;;;;5.67;74.54;98902.78;5046398;28;20455;-74
2022/11/28 11:08:39;;;;;;;45.67;27.00;;;;;;;5.71;74.37;98898.44;5046593;28;20124;-77
2022/11/28 11:11:29;;;;;;;44.83;27.77;;;;;;;5.75;74.59;98896.84;5046484;28;20114;-76
2022/11/28 11:14:02;;;;;;;49.80;29.20;;;;;;;5.77;74.46;98889.25;5045857;28;20033;-75
2022/11/28 11:16:50;;;;;;;112.28;52.67;;;;;;;5.84;74.40;98894.53;5049089;28;20033;-74
2022/11/28 11:19:28;;;;;;;75.13;39.22;;;;;;;5.89;74.43;98886.44;5047063;28;20055;-73
2022/11/28 11:22:27;;;;;;;59.25;30.33;;;;;;;5.91;74.40;98888.88;5043935;28;20060;-73
2022/11/28 11:25:11;;;;;;;52.50;28.33;;;;;;;5.96;74.64;98892.47;5043547;28;20041;-74
2022/11/28 11:27:38;;;;;;;48.10;27.45;;;;;;;6.02;74.67;98890.69;5049130;28;20100;-74
2022/11/28 11:30:23;;;;;;;45.97;26.88;;;;;;;6.01;74.13;98886.31;5047043;28;20035;-74
2022/11/28 11:32:48;;;;;;;49.10;28.08;;;;;;;6.07;74.58;98885.28;5045088;28;20029;-74
2022/11/28 11:35:22;;;;;;;51.72;30.10;;;;;;;6.10;74.32;98889.41;5049644;28;20025;-74
2022/11/28 11:37:48;;;;;;;64.43;35.63;;;;;;;6.14;74.15;98884.25;5049445;28;20036;-74
2022/11/28 11:40:23;;;;;;;60.03;33.75;;;;;;;6.18;74.35;98886.22;5049036;28;20025;-75
2022/11/28 11:42:53;;;;;;;50.83;28.58;;;;;;;6.22;74.62;98883.78;5048478;28;20025;-76